sensor_id;sensor_type;location;lat;lon;timestamp;P1;durP1;ratioP1;P2;durP2;ratioP2
40555;SDS011;26250;45.422;11.100;2023-04-24T00:01:59;11.93;;;7.30;;
40555;SDS011;26250;45.422;11.100;2023-04-24T00:04:27;9.07;;;8.02;;
40555;SDS011;26250;45.422;11.100;2023-04-24T00:06:54;8.27;;;7.50;;
40555;SDS011;26250;45.422;11.100;2023-04-24T00:09:23;11.38;;;8.98;;
40555;SDS011;26250;45.422;11.100;2023-04-24T00:11:50;14.75;;;9.82;;
40555;SDS011;26250;45.422;11.100;2023-04-24T00:14:18;9.88;;;8.73;;
40555;SDS011;26250;45.422;11.100;2023-04-24T00:16:45;9.68;;;8.68;;
40555;SDS011;26250;45.422;11.100;2023-04-24T00:19:12;8.85;;;8.05;;
40555;SDS011;26250;45.422;11.100;2023-04-24T00:21:39;10.73;;;9.73;;
40555;SDS011;26250;45.422;11.100;2023-04-24T00:24:07;9.95;;;9.15;;
40555;SDS011;26250;45.422;11.100;2023-04-24T00:26:37;10.82;;;9.63;;
40555;SDS011;26250;45.422;11.100;2023-04-24T00:29:04;10.60;;;9.50;;
40555;SDS011;26250;45.422;11.100;2023-04-24T00:31:31;10.73;;;9.73;;
40555;SDS011;26250;45.422;11.100;2023-04-24T00:34:01;10.57;;;9.57;;
40555;SDS011;26250;45.422;11.100;2023-04-24T00:36:28;10.50;;;9.57;;
40555;SDS011;26250;45.422;11.100;2023-04-24T00:38:58;10.02;;;9.23;;
40555;SDS011;26250;45.422;11.100;2023-04-24T00:41:26;11.20;;;9.95;;
40555;SDS011;26250;45.422;11.100;2023-04-24T00:43:54;10.85;;;9.85;;
40555;SDS011;26250;45.422;11.100;2023-04-24T00:46:21;11.68;;;10.50;;
40555;SDS011;26250;45.422;11.100;2023-04-24T00:48:48;12.93;;;11.57;;
40555;SDS011;26250;45.422;11.100;2023-04-24T00:51:16;18.27;;;12.13;;
40555;SDS011;26250;45.422;11.100;2023-04-24T00:53:43;14.43;;;12.15;;
40555;SDS011;26250;45.422;11.100;2023-04-24T00:56:10;14.57;;;11.75;;
40555;SDS011;26250;45.422;11.100;2023-04-24T00:58:37;13.07;;;10.50;;
40555;SDS011;26250;45.422;11.100;2023-04-24T01:01:05;12.95;;;11.52;;
40555;SDS011;26250;45.422;11.100;2023-04-24T01:03:33;14.75;;;11.63;;
40555;SDS011;26250;45.422;11.100;2023-04-24T01:06:04;14.68;;;11.60;;
40555;SDS011;26250;45.422;11.100;2023-04-24T01:08:31;13.68;;;12.18;;
40555;SDS011;26250;45.422;11.100;2023-04-24T01:11:03;14.30;;;11.90;;
40555;SDS011;26250;45.422;11.100;2023-04-24T01:13:31;13.38;;;12.10;;
40555;SDS011;26250;45.422;11.100;2023-04-24T01:15:59;15.18;;;12.40;;
40555;SDS011;26250;45.422;11.100;2023-04-24T01:18:27;13.13;;;11.85;;
40555;SDS011;26250;45.422;11.100;2023-04-24T01:20:56;13.57;;;12.18;;
40555;SDS011;26250;45.422;11.100;2023-04-24T01:23:25;17.77;;;12.57;;
40555;SDS011;26250;45.422;11.100;2023-04-24T01:25:53;15.23;;;12.55;;
40555;SDS011;26250;45.422;11.100;2023-04-24T01:28:20;13.55;;;11.55;;
40555;SDS011;26250;45.422;11.100;2023-04-24T01:30:48;16.30;;;10.68;;
40555;SDS011;26250;45.422;11.100;2023-04-24T01:33:15;12.07;;;10.85;;
40555;SDS011;26250;45.422;11.100;2023-04-24T01:35:47;13.13;;;11.38;;
40555;SDS011;26250;45.422;11.100;2023-04-24T01:38:15;13.90;;;12.60;;
40555;SDS011;26250;45.422;11.100;2023-04-24T01:40:42;13.15;;;11.88;;
40555;SDS011;26250;45.422;11.100;2023-04-24T01:43:08;13.15;;;11.80;;
40555;SDS011;26250;45.422;11.100;2023-04-24T01:45:35;13.32;;;11.88;;
40555;SDS011;26250;45.422;11.100;2023-04-24T01:48:03;13.30;;;12.05;;
40555;SDS011;26250;45.422;11.100;2023-04-24T01:50:30;13.05;;;11.80;;
40555;SDS011;26250;45.422;11.100;2023-04-24T01:52:57;12.40;;;11.20;;
40555;SDS011;26250;45.422;11.100;2023-04-24T01:55:24;12.63;;;11.18;;
40555;SDS011;26250;45.422;11.100;2023-04-24T01:57:52;17.70;;;11.40;;
40555;SDS011;26250;45.422;11.100;2023-04-24T02:00:20;14.65;;;10.82;;
40555;SDS011;26250;45.422;11.100;2023-04-24T02:02:51;14.80;;;12.27;;
40555;SDS011;26250;45.422;11.100;2023-04-24T02:05:19;11.80;;;10.80;;
40555;SDS011;26250;45.422;11.100;2023-04-24T02:07:47;13.63;;;11.95;;
40555;SDS011;26250;45.422;11.100;2023-04-24T02:10:13;12.35;;;11.25;;
40555;SDS011;26250;45.422;11.100;2023-04-24T02:12:41;13.20;;;11.85;;
40555;SDS011;26250;45.422;11.100;2023-04-24T02:15:08;13.00;;;11.82;;
40555;SDS011;26250;45.422;11.100;2023-04-24T02:17:36;16.63;;;11.15;;
40555;SDS011;26250;45.422;11.100;2023-04-24T02:20:04;12.38;;;11.27;;
40555;SDS011;26250;45.422;11.100;2023-04-24T02:22:32;12.88;;;11.43;;
40555;SDS011;26250;45.422;11.100;2023-04-24T02:25:00;13.95;;;12.57;;
40555;SDS011;26250;45.422;11.100;2023-04-24T02:27:28;13.07;;;11.77;;
40555;SDS011;26250;45.422;11.100;2023-04-24T02:29:55;13.50;;;12.15;;
40555;SDS011;26250;45.422;11.100;2023-04-24T02:32:22;12.95;;;11.70;;
40555;SDS011;26250;45.422;11.100;2023-04-24T02:34:49;12.38;;;11.27;;
40555;SDS011;26250;45.422;11.100;2023-04-24T02:37:16;14.73;;;11.52;;
40555;SDS011;26250;45.422;11.100;2023-04-24T02:39:43;13.88;;;11.48;;
40555;SDS011;26250;45.422;11.100;2023-04-24T02:42:10;12.27;;;11.07;;
40555;SDS011;26250;45.422;11.100;2023-04-24T02:44:37;13.40;;;12.00;;
40555;SDS011;26250;45.422;11.100;2023-04-24T02:47:04;11.15;;;10.10;;
40555;SDS011;26250;45.422;11.100;2023-04-24T02:49:31;15.88;;;12.88;;
40555;SDS011;26250;45.422;11.100;2023-04-24T02:51:58;20.35;;;11.90;;
40555;SDS011;26250;45.422;11.100;2023-04-24T02:54:24;12.57;;;10.73;;
40555;SDS011;26250;45.422;11.100;2023-04-24T02:56:52;13.07;;;11.68;;
40555;SDS011;26250;45.422;11.100;2023-04-24T02:59:18;13.55;;;12.00;;
40555;SDS011;26250;45.422;11.100;2023-04-24T03:01:45;15.65;;;11.70;;
40555;SDS011;26250;45.422;11.100;2023-04-24T03:04:13;18.30;;;11.18;;
40555;SDS011;26250;45.422;11.100;2023-04-24T03:06:40;19.35;;;12.38;;
40555;SDS011;26250;45.422;11.100;2023-04-24T03:09:07;13.98;;;12.68;;
40555;SDS011;26250;45.422;11.100;2023-04-24T03:11:34;12.18;;;10.60;;
40555;SDS011;26250;45.422;11.100;2023-04-24T03:14:02;21.92;;;11.70;;
40555;SDS011;26250;45.422;11.100;2023-04-24T03:16:29;13.15;;;10.90;;
40555;SDS011;26250;45.422;11.100;2023-04-24T03:18:56;15.63;;;11.00;;
40555;SDS011;26250;45.422;11.100;2023-04-24T03:21:28;12.07;;;10.85;;
40555;SDS011;26250;45.422;11.100;2023-04-24T03:23:55;18.45;;;11.85;;
40555;SDS011;26250;45.422;11.100;2023-04-24T03:26:22;12.63;;;11.40;;
40555;SDS011;26250;45.422;11.100;2023-04-24T03:29:02;14.95;;;11.02;;
40555;SDS011;26250;45.422;11.100;2023-04-24T03:31:29;16.90;;;11.88;;
40555;SDS011;26250;45.422;11.100;2023-04-24T03:33:56;13.73;;;12.27;;
40555;SDS011;26250;45.422;11.100;2023-04-24T03:36:23;13.50;;;12.07;;
40555;SDS011;26250;45.422;11.100;2023-04-24T03:38:53;14.77;;;12.10;;
40555;SDS011;26250;45.422;11.100;2023-04-24T03:41:29;13.75;;;12.02;;
40555;SDS011;26250;45.422;11.100;2023-04-24T03:44:12;13.32;;;12.13;;
40555;SDS011;26250;45.422;11.100;2023-04-24T03:46:40;12.77;;;11.55;;
40555;SDS011;26250;45.422;11.100;2023-04-24T03:49:08;11.70;;;10.05;;
40555;SDS011;26250;45.422;11.100;2023-04-24T03:51:41;19.85;;;10.27;;
40555;SDS011;26250;45.422;11.100;2023-04-24T03:54:15;12.73;;;11.40;;
40555;SDS011;26250;45.422;11.100;2023-04-24T03:56:44;15.10;;;11.10;;
40555;SDS011;26250;45.422;11.100;2023-04-24T03:59:11;13.15;;;11.90;;
40555;SDS011;26250;45.422;11.100;2023-04-24T04:01:42;13.02;;;10.05;;
40555;SDS011;26250;45.422;11.100;2023-04-24T04:04:13;13.90;;;11.13;;
40555;SDS011;26250;45.422;11.100;2023-04-24T04:06:42;12.10;;;10.88;;
40555;SDS011;26250;45.422;11.100;2023-04-24T04:09:10;13.05;;;10.98;;
40555;SDS011;26250;45.422;11.100;2023-04-24T04:11:37;19.02;;;11.75;;
40555;SDS011;26250;45.422;11.100;2023-04-24T04:14:06;12.30;;;11.13;;
40555;SDS011;26250;45.422;11.100;2023-04-24T04:16:35;10.82;;;9.68;;
40555;SDS011;26250;45.422;11.100;2023-04-24T04:19:04;12.40;;;11.18;;
40555;SDS011;26250;45.422;11.100;2023-04-24T04:21:31;12.88;;;11.57;;
40555;SDS011;26250;45.422;11.100;2023-04-24T04:24:17;11.95;;;10.85;;
40555;SDS011;26250;45.422;11.100;2023-04-24T04:26:45;13.65;;;12.27;;
40555;SDS011;26250;45.422;11.100;2023-04-24T04:29:26;14.38;;;13.02;;
40555;SDS011;26250;45.422;11.100;2023-04-24T04:31:54;13.98;;;12.50;;
40555;SDS011;26250;45.422;11.100;2023-04-24T04:34:22;14.50;;;12.73;;
40555;SDS011;26250;45.422;11.100;2023-04-24T04:36:50;14.48;;;13.07;;
40555;SDS011;26250;45.422;11.100;2023-04-24T04:39:53;13.48;;;12.15;;
40555;SDS011;26250;45.422;11.100;2023-04-24T04:42:24;15.15;;;13.68;;
40555;SDS011;26250;45.422;11.100;2023-04-24T04:44:51;25.42;;;13.80;;
40555;SDS011;26250;45.422;11.100;2023-04-24T04:47:24;15.63;;;11.55;;
40555;SDS011;26250;45.422;11.100;2023-04-24T04:49:54;18.63;;;12.48;;
40555;SDS011;26250;45.422;11.100;2023-04-24T04:52:25;17.40;;;11.70;;
40555;SDS011;26250;45.422;11.100;2023-04-24T04:55:13;12.40;;;11.27;;
40555;SDS011;26250;45.422;11.100;2023-04-24T04:58:16;12.35;;;11.18;;
40555;SDS011;26250;45.422;11.100;2023-04-24T05:00:44;21.88;;;12.57;;
40555;SDS011;26250;45.422;11.100;2023-04-24T05:03:19;15.38;;;12.68;;
40555;SDS011;26250;45.422;11.100;2023-04-24T05:05:54;12.40;;;10.93;;
40555;SDS011;26250;45.422;11.100;2023-04-24T05:08:22;13.32;;;11.75;;
40555;SDS011;26250;45.422;11.100;2023-04-24T05:10:53;12.02;;;10.85;;
40555;SDS011;26250;45.422;11.100;2023-04-24T05:13:22;10.90;;;9.90;;
40555;SDS011;26250;45.422;11.100;2023-04-24T05:15:52;18.50;;;10.43;;
40555;SDS011;26250;45.422;11.100;2023-04-24T05:18:23;11.43;;;10.02;;
40555;SDS011;26250;45.422;11.100;2023-04-24T05:20:50;10.27;;;9.38;;
40555;SDS011;26250;45.422;11.100;2023-04-24T05:23:17;12.23;;;6.95;;
40555;SDS011;26250;45.422;11.100;2023-04-24T05:25:50;8.25;;;7.47;;
40555;SDS011;26250;45.422;11.100;2023-04-24T05:28:19;12.25;;;6.55;;
40555;SDS011;26250;45.422;11.100;2023-04-24T05:30:58;7.43;;;5.95;;
40555;SDS011;26250;45.422;11.100;2023-04-24T05:33:26;5.30;;;3.95;;
40555;SDS011;26250;45.422;11.100;2023-04-24T05:35:53;7.25;;;3.13;;
40555;SDS011;26250;45.422;11.100;2023-04-24T05:38:20;3.83;;;3.53;;
40555;SDS011;26250;45.422;11.100;2023-04-24T05:40:47;2.40;;;2.20;;
40555;SDS011;26250;45.422;11.100;2023-04-24T05:43:14;1.67;;;1.58;;
40555;SDS011;26250;45.422;11.100;2023-04-24T05:45:41;3.00;;;2.08;;
40555;SDS011;26250;45.422;11.100;2023-04-24T05:48:08;5.32;;;1.52;;
40555;SDS011;26250;45.422;11.100;2023-04-24T05:50:35;3.55;;;1.70;;
40555;SDS011;26250;45.422;11.100;2023-04-24T05:53:03;5.68;;;1.70;;
40555;SDS011;26250;45.422;11.100;2023-04-24T05:55:33;1.80;;;1.60;;
40555;SDS011;26250;45.422;11.100;2023-04-24T05:58:00;1.45;;;1.35;;
40555;SDS011;26250;45.422;11.100;2023-04-24T06:00:28;2.35;;;1.23;;
40555;SDS011;26250;45.422;11.100;2023-04-24T06:03:03;1.05;;;1.02;;
40555;SDS011;26250;45.422;11.100;2023-04-24T06:05:31;0.90;;;0.90;;
40555;SDS011;26250;45.422;11.100;2023-04-24T06:07:58;1.42;;;1.17;;
40555;SDS011;26250;45.422;11.100;2023-04-24T06:10:30;1.92;;;1.33;;
40555;SDS011;26250;45.422;11.100;2023-04-24T06:12:58;0.88;;;0.88;;
40555;SDS011;26250;45.422;11.100;2023-04-24T06:15:29;2.13;;;1.33;;
40555;SDS011;26250;45.422;11.100;2023-04-24T06:18:09;1.27;;;0.90;;
40555;SDS011;26250;45.422;11.100;2023-04-24T06:20:40;4.63;;;1.23;;
40555;SDS011;26250;45.422;11.100;2023-04-24T06:23:08;1.35;;;1.20;;
40555;SDS011;26250;45.422;11.100;2023-04-24T06:25:38;2.95;;;0.77;;
40555;SDS011;26250;45.422;11.100;2023-04-24T06:28:05;1.52;;;1.42;;
40555;SDS011;26250;45.422;11.100;2023-04-24T06:30:32;1.42;;;1.33;;
40555;SDS011;26250;45.422;11.100;2023-04-24T06:32:59;1.73;;;1.13;;
40555;SDS011;26250;45.422;11.100;2023-04-24T06:35:45;1.38;;;1.27;;
40555;SDS011;26250;45.422;11.100;2023-04-24T06:38:12;2.92;;;1.23;;
40555;SDS011;26250;45.422;11.100;2023-04-24T06:40:38;0.90;;;0.90;;
40555;SDS011;26250;45.422;11.100;2023-04-24T06:43:05;1.42;;;1.20;;
40555;SDS011;26250;45.422;11.100;2023-04-24T06:45:33;2.03;;;1.20;;
40555;SDS011;26250;45.422;11.100;2023-04-24T06:48:00;3.08;;;1.20;;
40555;SDS011;26250;45.422;11.100;2023-04-24T06:50:27;1.30;;;1.20;;
40555;SDS011;26250;45.422;11.100;2023-04-24T06:52:54;1.98;;;1.60;;
40555;SDS011;26250;45.422;11.100;2023-04-24T06:55:21;1.50;;;1.27;;
40555;SDS011;26250;45.422;11.100;2023-04-24T06:57:48;1.30;;;1.20;;
40555;SDS011;26250;45.422;11.100;2023-04-24T07:00:15;1.10;;;1.10;;
40555;SDS011;26250;45.422;11.100;2023-04-24T07:02:42;1.25;;;1.15;;
40555;SDS011;26250;45.422;11.100;2023-04-24T07:05:09;2.33;;;1.15;;
40555;SDS011;26250;45.422;11.100;2023-04-24T07:07:36;1.25;;;1.15;;
40555;SDS011;26250;45.422;11.100;2023-04-24T07:10:04;5.35;;;4.30;;
40555;SDS011;26250;45.422;11.100;2023-04-24T07:12:32;3.75;;;3.55;;
40555;SDS011;26250;45.422;11.100;2023-04-24T07:14:59;4.18;;;3.78;;
40555;SDS011;26250;45.422;11.100;2023-04-24T07:17:26;4.63;;;4.13;;
40555;SDS011;26250;45.422;11.100;2023-04-24T07:19:53;4.68;;;4.28;;
40555;SDS011;26250;45.422;11.100;2023-04-24T07:22:20;4.90;;;3.55;;
40555;SDS011;26250;45.422;11.100;2023-04-24T07:24:47;4.38;;;4.03;;
40555;SDS011;26250;45.422;11.100;2023-04-24T07:27:14;5.10;;;4.07;;
40555;SDS011;26250;45.422;11.100;2023-04-24T07:29:41;3.63;;;3.33;;
40555;SDS011;26250;45.422;11.100;2023-04-24T07:32:09;7.07;;;4.68;;
40555;SDS011;26250;45.422;11.100;2023-04-24T07:34:36;5.25;;;4.10;;
40555;SDS011;26250;45.422;11.100;2023-04-24T07:37:03;4.47;;;4.10;;
40555;SDS011;26250;45.422;11.100;2023-04-24T07:39:31;4.50;;;4.10;;
40555;SDS011;26250;45.422;11.100;2023-04-24T07:41:58;4.97;;;3.70;;
40555;SDS011;26250;45.422;11.100;2023-04-24T07:44:25;3.83;;;3.53;;
40555;SDS011;26250;45.422;11.100;2023-04-24T07:46:52;5.22;;;4.10;;
40555;SDS011;26250;45.422;11.100;2023-04-24T07:49:19;5.03;;;4.43;;
40555;SDS011;26250;45.422;11.100;2023-04-24T07:51:46;5.32;;;4.82;;
40555;SDS011;26250;45.422;11.100;2023-04-24T07:54:15;5.10;;;4.63;;
40555;SDS011;26250;45.422;11.100;2023-04-24T07:56:43;5.28;;;4.78;;
40555;SDS011;26250;45.422;11.100;2023-04-24T07:59:10;5.15;;;4.70;;
40555;SDS011;26250;45.422;11.100;2023-04-24T08:01:37;5.88;;;5.10;;
40555;SDS011;26250;45.422;11.100;2023-04-24T08:04:04;5.43;;;4.88;;
40555;SDS011;26250;45.422;11.100;2023-04-24T08:06:32;5.88;;;5.32;;
40555;SDS011;26250;45.422;11.100;2023-04-24T08:08:59;6.47;;;5.97;;
40555;SDS011;26250;45.422;11.100;2023-04-24T08:11:26;5.85;;;5.35;;
40555;SDS011;26250;45.422;11.100;2023-04-24T08:13:56;7.50;;;5.90;;
40555;SDS011;26250;45.422;11.100;2023-04-24T08:16:23;6.38;;;5.93;;
40555;SDS011;26250;45.422;11.100;2023-04-24T08:18:50;8.27;;;7.43;;
40555;SDS011;26250;45.422;11.100;2023-04-24T08:21:17;8.80;;;6.60;;
40555;SDS011;26250;45.422;11.100;2023-04-24T08:23:47;11.90;;;7.28;;
40555;SDS011;26250;45.422;11.100;2023-04-24T08:26:14;6.80;;;6.20;;
40555;SDS011;26250;45.422;11.100;2023-04-24T08:28:42;5.78;;;4.13;;
40555;SDS011;26250;45.422;11.100;2023-04-24T08:31:10;3.13;;;2.92;;
40555;SDS011;26250;45.422;11.100;2023-04-24T08:33:37;3.35;;;3.05;;
40555;SDS011;26250;45.422;11.100;2023-04-24T08:36:05;1.95;;;1.48;;
40555;SDS011;26250;45.422;11.100;2023-04-24T08:38:32;2.08;;;1.40;;
40555;SDS011;26250;45.422;11.100;2023-04-24T08:41:00;1.42;;;1.30;;
40555;SDS011;26250;45.422;11.100;2023-04-24T08:43:28;2.20;;;1.40;;
40555;SDS011;26250;45.422;11.100;2023-04-24T08:45:55;1.58;;;1.25;;
40555;SDS011;26250;45.422;11.100;2023-04-24T08:48:23;0.95;;;0.80;;
40555;SDS011;26250;45.422;11.100;2023-04-24T08:50:57;1.20;;;1.10;;
40555;SDS011;26250;45.422;11.100;2023-04-24T08:53:28;1.85;;;1.08;;
40555;SDS011;26250;45.422;11.100;2023-04-24T08:55:56;1.95;;;1.20;;
40555;SDS011;26250;45.422;11.100;2023-04-24T08:58:25;3.72;;;1.25;;
40555;SDS011;26250;45.422;11.100;2023-04-24T09:00:56;4.35;;;1.48;;
40555;SDS011;26250;45.422;11.100;2023-04-24T09:03:24;1.75;;;1.38;;
40555;SDS011;26250;45.422;11.100;2023-04-24T09:05:54;1.27;;;1.02;;
40555;SDS011;26250;45.422;11.100;2023-04-24T09:08:24;5.65;;;1.38;;
40555;SDS011;26250;45.422;11.100;2023-04-24T09:10:52;0.75;;;0.75;;
40555;SDS011;26250;45.422;11.100;2023-04-24T09:13:19;3.40;;;1.02;;
40555;SDS011;26250;45.422;11.100;2023-04-24T09:15:46;0.50;;;0.50;;
40555;SDS011;26250;45.422;11.100;2023-04-24T09:18:14;2.03;;;0.95;;
40555;SDS011;26250;45.422;11.100;2023-04-24T09:23:31;5.43;;;1.15;;
40555;SDS011;26250;45.422;11.100;2023-04-24T09:25:59;2.35;;;1.02;;
40555;SDS011;26250;45.422;11.100;2023-04-24T09:31:05;1.38;;;1.08;;
40555;SDS011;26250;45.422;11.100;2023-04-24T09:33:35;1.48;;;1.10;;
40555;SDS011;26250;45.422;11.100;2023-04-24T09:36:02;1.40;;;1.00;;
40555;SDS011;26250;45.422;11.100;2023-04-24T09:38:36;3.22;;;1.23;;
40555;SDS011;26250;45.422;11.100;2023-04-24T09:41:04;1.88;;;0.90;;
40555;SDS011;26250;45.422;11.100;2023-04-24T09:43:33;1.25;;;0.80;;
40555;SDS011;26250;45.422;11.100;2023-04-24T09:46:05;3.92;;;1.67;;
40555;SDS011;26250;45.422;11.100;2023-04-24T09:48:36;1.70;;;1.02;;
40555;SDS011;26250;45.422;11.100;2023-04-24T09:51:05;1.35;;;1.17;;
40555;SDS011;26250;45.422;11.100;2023-04-24T09:53:45;1.10;;;1.02;;
40555;SDS011;26250;45.422;11.100;2023-04-24T09:56:21;1.73;;;0.90;;
40555;SDS011;26250;45.422;11.100;2023-04-24T09:58:51;4.05;;;1.63;;
40555;SDS011;26250;45.422;11.100;2023-04-24T10:01:31;3.25;;;1.30;;
40555;SDS011;26250;45.422;11.100;2023-04-24T10:03:58;2.03;;;1.40;;
40555;SDS011;26250;45.422;11.100;2023-04-24T10:06:35;9.95;;;1.35;;
40555;SDS011;26250;45.422;11.100;2023-04-24T10:09:02;2.58;;;1.15;;
40555;SDS011;26250;45.422;11.100;2023-04-24T10:11:30;0.77;;;0.77;;
40555;SDS011;26250;45.422;11.100;2023-04-24T10:13:57;2.13;;;1.58;;
40555;SDS011;26250;45.422;11.100;2023-04-24T10:16:25;1.15;;;1.02;;
40555;SDS011;26250;45.422;11.100;2023-04-24T10:18:53;2.83;;;1.23;;
40555;SDS011;26250;45.422;11.100;2023-04-24T10:21:21;1.15;;;1.05;;
40555;SDS011;26250;45.422;11.100;2023-04-24T10:23:49;2.17;;;1.00;;
40555;SDS011;26250;45.422;11.100;2023-04-24T10:26:17;2.35;;;1.45;;
40555;SDS011;26250;45.422;11.100;2023-04-24T10:28:46;1.42;;;1.10;;
40555;SDS011;26250;45.422;11.100;2023-04-24T10:31:14;1.20;;;1.10;;
40555;SDS011;26250;45.422;11.100;2023-04-24T10:33:42;5.05;;;1.50;;
40555;SDS011;26250;45.422;11.100;2023-04-24T10:36:10;2.13;;;1.27;;
40555;SDS011;26250;45.422;11.100;2023-04-24T10:38:38;2.85;;;1.23;;
40555;SDS011;26250;45.422;11.100;2023-04-24T10:41:12;3.05;;;1.25;;
40555;SDS011;26250;45.422;11.100;2023-04-24T10:43:45;1.98;;;1.45;;
40555;SDS011;26250;45.422;11.100;2023-04-24T10:46:21;1.63;;;1.48;;
40555;SDS011;26250;45.422;11.100;2023-04-24T10:48:52;1.60;;;1.50;;
40555;SDS011;26250;45.422;11.100;2023-04-24T10:51:23;2.70;;;1.58;;
40555;SDS011;26250;45.422;11.100;2023-04-24T10:53:50;4.03;;;2.00;;
40555;SDS011;26250;45.422;11.100;2023-04-24T10:56:18;2.17;;;1.23;;
40555;SDS011;26250;45.422;11.100;2023-04-24T10:58:49;4.43;;;2.05;;
40555;SDS011;26250;45.422;11.100;2023-04-24T11:01:25;3.85;;;1.55;;
40555;SDS011;26250;45.422;11.100;2023-04-24T11:04:00;1.30;;;1.20;;
40555;SDS011;26250;45.422;11.100;2023-04-24T11:06:35;1.20;;;1.20;;
40555;SDS011;26250;45.422;11.100;2023-04-24T11:09:03;2.25;;;1.35;;
40555;SDS011;26250;45.422;11.100;2023-04-24T11:11:36;2.50;;;1.48;;
40555;SDS011;26250;45.422;11.100;2023-04-24T11:14:06;2.72;;;1.30;;
40555;SDS011;26250;45.422;11.100;2023-04-24T11:16:55;2.72;;;1.60;;
40555;SDS011;26250;45.422;11.100;2023-04-24T11:19:25;1.42;;;1.20;;
40555;SDS011;26250;45.422;11.100;2023-04-24T11:27:13;1.40;;;1.30;;
40555;SDS011;26250;45.422;11.100;2023-04-24T11:35:36;2.38;;;1.85;;
40555;SDS011;26250;45.422;11.100;2023-04-24T11:37:52;2.60;;;2.40;;
40555;SDS011;26250;45.422;11.100;2023-04-24T11:40:23;12.57;;;2.35;;
40555;SDS011;26250;45.422;11.100;2023-04-24T11:42:52;2.72;;;2.03;;
40555;SDS011;26250;45.422;11.100;2023-04-24T11:45:23;6.07;;;2.13;;
40555;SDS011;26250;45.422;11.100;2023-04-24T11:47:52;2.75;;;1.90;;
40555;SDS011;26250;45.422;11.100;2023-04-24T11:50:21;3.53;;;1.65;;
40555;SDS011;26250;45.422;11.100;2023-04-24T11:52:49;2.30;;;2.08;;
40555;SDS011;26250;45.422;11.100;2023-04-24T11:57:49;2.22;;;1.65;;
40555;SDS011;26250;45.422;11.100;2023-04-24T12:00:18;1.77;;;1.67;;
40555;SDS011;26250;45.422;11.100;2023-04-24T12:02:47;2.50;;;1.38;;
40555;SDS011;26250;45.422;11.100;2023-04-24T12:05:23;7.07;;;1.70;;
40555;SDS011;26250;45.422;11.100;2023-04-24T12:07:54;1.38;;;1.10;;
40555;SDS011;26250;45.422;11.100;2023-04-24T12:10:25;1.52;;;1.33;;
40555;SDS011;26250;45.422;11.100;2023-04-24T12:12:53;1.38;;;1.20;;
40555;SDS011;26250;45.422;11.100;2023-04-24T12:15:22;1.90;;;1.35;;
40555;SDS011;26250;45.422;11.100;2023-04-24T12:17:52;7.50;;;1.20;;
40555;SDS011;26250;45.422;11.100;2023-04-24T12:20:27;1.35;;;0.77;;
40555;SDS011;26250;45.422;11.100;2023-04-24T12:22:57;6.43;;;0.90;;
40555;SDS011;26250;45.422;11.100;2023-04-24T12:25:26;1.05;;;0.95;;
40555;SDS011;26250;45.422;11.100;2023-04-24T12:30:50;0.90;;;0.70;;
40555;SDS011;26250;45.422;11.100;2023-04-24T12:33:21;0.50;;;0.50;;
40555;SDS011;26250;45.422;11.100;2023-04-24T12:35:48;3.45;;;0.70;;
40555;SDS011;26250;45.422;11.100;2023-04-24T12:38:23;3.90;;;1.55;;
40555;SDS011;26250;45.422;11.100;2023-04-24T12:41:04;1.45;;;0.77;;
40555;SDS011;26250;45.422;11.100;2023-04-24T12:43:33;1.10;;;0.60;;
40555;SDS011;26250;45.422;11.100;2023-04-24T12:46:00;0.75;;;0.73;;
40555;SDS011;26250;45.422;11.100;2023-04-24T12:48:30;5.35;;;1.00;;
40555;SDS011;26250;45.422;11.100;2023-04-24T12:50:58;2.22;;;1.10;;
40555;SDS011;26250;45.422;11.100;2023-04-24T12:53:28;1.25;;;0.80;;
40555;SDS011;26250;45.422;11.100;2023-04-24T12:55:56;1.42;;;1.00;;
40555;SDS011;26250;45.422;11.100;2023-04-24T12:58:23;1.60;;;1.15;;
40555;SDS011;26250;45.422;11.100;2023-04-24T13:00:50;1.00;;;0.90;;
40555;SDS011;26250;45.422;11.100;2023-04-24T13:03:18;1.00;;;1.00;;
40555;SDS011;26250;45.422;11.100;2023-04-24T13:05:45;1.83;;;1.40;;
40555;SDS011;26250;45.422;11.100;2023-04-24T13:08:12;1.00;;;1.00;;
40555;SDS011;26250;45.422;11.100;2023-04-24T13:10:39;2.92;;;1.42;;
40555;SDS011;26250;45.422;11.100;2023-04-24T13:13:07;1.85;;;1.25;;
40555;SDS011;26250;45.422;11.100;2023-04-24T13:15:34;2.83;;;1.38;;
40555;SDS011;26250;45.422;11.100;2023-04-24T13:18:01;3.22;;;1.10;;
40555;SDS011;26250;45.422;11.100;2023-04-24T13:20:31;8.30;;;3.20;;
40555;SDS011;26250;45.422;11.100;2023-04-24T13:22:58;1.40;;;1.23;;
40555;SDS011;26250;45.422;11.100;2023-04-24T13:25:26;2.08;;;1.30;;
40555;SDS011;26250;45.422;11.100;2023-04-24T13:27:53;3.85;;;1.35;;
40555;SDS011;26250;45.422;11.100;2023-04-24T13:30:21;1.25;;;1.05;;
40555;SDS011;26250;45.422;11.100;2023-04-24T13:32:48;4.88;;;1.13;;
40555;SDS011;26250;45.422;11.100;2023-04-24T13:35:15;3.10;;;1.05;;
40555;SDS011;26250;45.422;11.100;2023-04-24T13:37:42;1.27;;;0.88;;
40555;SDS011;26250;45.422;11.100;2023-04-24T13:40:09;1.08;;;0.90;;
40555;SDS011;26250;45.422;11.100;2023-04-24T13:42:39;3.20;;;1.00;;
40555;SDS011;26250;45.422;11.100;2023-04-24T13:45:06;1.30;;;1.20;;
40555;SDS011;26250;45.422;11.100;2023-04-24T13:47:50;1.13;;;1.05;;
40555;SDS011;26250;45.422;11.100;2023-04-24T13:50:18;1.05;;;0.90;;
40555;SDS011;26250;45.422;11.100;2023-04-24T13:52:45;2.55;;;0.95;;
40555;SDS011;26250;45.422;11.100;2023-04-24T13:55:12;1.58;;;0.80;;
40555;SDS011;26250;45.422;11.100;2023-04-24T13:57:39;0.93;;;0.90;;
40555;SDS011;26250;45.422;11.100;2023-04-24T14:00:06;5.50;;;1.10;;
40555;SDS011;26250;45.422;11.100;2023-04-24T14:02:37;2.85;;;1.67;;
40555;SDS011;26250;45.422;11.100;2023-04-24T14:05:04;1.50;;;1.30;;
40555;SDS011;26250;45.422;11.100;2023-04-24T14:07:32;5.22;;;1.60;;
40555;SDS011;26250;45.422;11.100;2023-04-24T14:09:59;11.82;;;2.10;;
40555;SDS011;26250;45.422;11.100;2023-04-24T14:12:27;5.70;;;2.40;;
40555;SDS011;26250;45.422;11.100;2023-04-24T14:14:54;1.90;;;1.80;;
40555;SDS011;26250;45.422;11.100;2023-04-24T14:17:20;2.00;;;1.88;;
40555;SDS011;26250;45.422;11.100;2023-04-24T14:19:47;2.05;;;1.50;;
40555;SDS011;26250;45.422;11.100;2023-04-24T14:22:14;2.78;;;2.08;;
40555;SDS011;26250;45.422;11.100;2023-04-24T14:24:41;2.13;;;1.92;;
40555;SDS011;26250;45.422;11.100;2023-04-24T14:27:08;1.30;;;1.20;;
40555;SDS011;26250;45.422;11.100;2023-04-24T14:29:35;1.73;;;1.63;;
40555;SDS011;26250;45.422;11.100;2023-04-24T14:32:05;2.92;;;2.63;;
40555;SDS011;26250;45.422;11.100;2023-04-24T14:34:32;4.22;;;2.10;;
40555;SDS011;26250;45.422;11.100;2023-04-24T14:36:59;3.80;;;2.28;;
40555;SDS011;26250;45.422;11.100;2023-04-24T14:39:26;5.28;;;1.38;;
40555;SDS011;26250;45.422;11.100;2023-04-24T14:41:53;2.05;;;1.45;;
40555;SDS011;26250;45.422;11.100;2023-04-24T14:44:19;2.90;;;1.95;;
40555;SDS011;26250;45.422;11.100;2023-04-24T14:46:47;6.43;;;1.67;;
40555;SDS011;26250;45.422;11.100;2023-04-24T14:49:15;1.92;;;1.60;;
40555;SDS011;26250;45.422;11.100;2023-04-24T14:51:42;2.63;;;1.77;;
40555;SDS011;26250;45.422;11.100;2023-04-24T14:54:09;1.90;;;1.80;;
40555;SDS011;26250;45.422;11.100;2023-04-24T14:56:36;1.42;;;1.33;;
40555;SDS011;26250;45.422;11.100;2023-04-24T14:59:05;3.28;;;1.70;;